sensor_id;sensor_type;location;lat;lon;timestamp;P1;durP1;ratioP1;P2;durP2;ratioP2
1785;SDS011;890;48.158;11.540;2023-11-25T00:00:28;0.70;;;0.70;;
1785;SDS011;890;48.158;11.540;2023-11-25T00:02:54;1.33;;;1.23;;
1785;SDS011;890;48.158;11.540;2023-11-25T00:05:20;0.60;;;0.60;;
1785;SDS011;890;48.158;11.540;2023-11-25T00:07:45;1.33;;;1.23;;
1785;SDS011;890;48.158;11.540;2023-11-25T00:10:11;0.50;;;0.40;;
1785;SDS011;890;48.158;11.540;2023-11-25T00:12:37;0.83;;;0.60;;
1785;SDS011;890;48.158;11.540;2023-11-25T00:15:03;0.70;;;0.70;;
1785;SDS011;890;48.158;11.540;2023-11-25T00:17:29;0.70;;;0.60;;
1785;SDS011;890;48.158;11.540;2023-11-25T00:19:59;1.23;;;1.13;;
1785;SDS011;890;48.158;11.540;2023-11-25T00:22:25;1.30;;;0.77;;
1785;SDS011;890;48.158;11.540;2023-11-25T00:24:51;0.60;;;0.60;;
1785;SDS011;890;48.158;11.540;2023-11-25T00:27:17;1.37;;;0.80;;
1785;SDS011;890;48.158;11.540;2023-11-25T00:29:43;0.97;;;0.83;;
1785;SDS011;890;48.158;11.540;2023-11-25T00:32:09;0.77;;;0.60;;
1785;SDS011;890;48.158;11.540;2023-11-25T00:34:35;0.60;;;0.50;;
1785;SDS011;890;48.158;11.540;2023-11-25T00:37:02;0.60;;;0.43;;
1785;SDS011;890;48.158;11.540;2023-11-25T00:39:28;4.00;;;2.20;;
1785;SDS011;890;48.158;11.540;2023-11-25T00:41:54;2.90;;;2.07;;
1785;SDS011;890;48.158;11.540;2023-11-25T00:44:20;0.60;;;0.57;;
1785;SDS011;890;48.158;11.540;2023-11-25T00:46:46;0.60;;;0.50;;
1785;SDS011;890;48.158;11.540;2023-11-25T00:49:12;0.50;;;0.40;;
1785;SDS011;890;48.158;11.540;2023-11-25T00:51:40;0.60;;;0.50;;
1785;SDS011;890;48.158;11.540;2023-11-25T00:54:07;1.20;;;0.50;;
1785;SDS011;890;48.158;11.540;2023-11-25T00:56:33;0.70;;;0.60;;
1785;SDS011;890;48.158;11.540;2023-11-25T00:58:59;0.50;;;0.40;;
1785;SDS011;890;48.158;11.540;2023-11-25T01:01:25;2.60;;;2.40;;
1785;SDS011;890;48.158;11.540;2023-11-25T01:03:51;0.63;;;0.63;;
1785;SDS011;890;48.158;11.540;2023-11-25T01:06:17;3.17;;;1.67;;
1785;SDS011;890;48.158;11.540;2023-11-25T01:08:43;2.57;;;2.07;;
1785;SDS011;890;48.158;11.540;2023-11-25T01:11:09;5.03;;;1.87;;
1785;SDS011;890;48.158;11.540;2023-11-25T01:13:34;0.50;;;0.30;;
1785;SDS011;890;48.158;11.540;2023-11-25T01:16:00;0.70;;;0.60;;
1785;SDS011;890;48.158;11.540;2023-11-25T01:18:26;0.50;;;0.40;;
1785;SDS011;890;48.158;11.540;2023-11-25T01:20:52;1.23;;;0.50;;
1785;SDS011;890;48.158;11.540;2023-11-25T01:23:20;0.50;;;0.40;;
1785;SDS011;890;48.158;11.540;2023-11-25T01:25:47;0.70;;;0.57;;
1785;SDS011;890;48.158;11.540;2023-11-25T01:28:13;1.23;;;0.40;;
1785;SDS011;890;48.158;11.540;2023-11-25T01:30:39;0.50;;;0.40;;
1785;SDS011;890;48.158;11.540;2023-11-25T01:33:05;0.50;;;0.30;;
1785;SDS011;890;48.158;11.540;2023-11-25T01:35:34;0.67;;;0.40;;
1785;SDS011;890;48.158;11.540;2023-11-25T01:38:03;0.50;;;0.40;;
1785;SDS011;890;48.158;11.540;2023-11-25T01:40:29;0.67;;;0.40;;
1785;SDS011;890;48.158;11.540;2023-11-25T01:42:57;0.50;;;0.40;;
1785;SDS011;890;48.158;11.540;2023-11-25T01:45:26;0.50;;;0.30;;
1785;SDS011;890;48.158;11.540;2023-11-25T01:47:52;0.50;;;0.30;;
1785;SDS011;890;48.158;11.540;2023-11-25T01:50:20;0.60;;;0.50;;
1785;SDS011;890;48.158;11.540;2023-11-25T01:52:46;0.50;;;0.30;;
1785;SDS011;890;48.158;11.540;2023-11-25T01:55:13;0.50;;;0.40;;
1785;SDS011;890;48.158;11.540;2023-11-25T01:57:40;0.50;;;0.30;;
1785;SDS011;890;48.158;11.540;2023-11-25T02:00:07;0.60;;;0.43;;
1785;SDS011;890;48.158;11.540;2023-11-25T02:02:35;0.60;;;0.50;;
1785;SDS011;890;48.158;11.540;2023-11-25T02:05:01;0.50;;;0.30;;
1785;SDS011;890;48.158;11.540;2023-11-25T02:07:27;0.50;;;0.40;;
1785;SDS011;890;48.158;11.540;2023-11-25T02:09:53;0.50;;;0.30;;
1785;SDS011;890;48.158;11.540;2023-11-25T02:12:20;0.60;;;0.40;;
1785;SDS011;890;48.158;11.540;2023-11-25T02:14:46;1.93;;;0.50;;
1785;SDS011;890;48.158;11.540;2023-11-25T02:17:13;0.50;;;0.40;;
1785;SDS011;890;48.158;11.540;2023-11-25T02:19:41;0.50;;;0.40;;
1785;SDS011;890;48.158;11.540;2023-11-25T02:22:08;0.57;;;0.47;;
1785;SDS011;890;48.158;11.540;2023-11-25T02:24:35;0.63;;;0.60;;
1785;SDS011;890;48.158;11.540;2023-11-25T02:27:02;1.63;;;1.07;;
1785;SDS011;890;48.158;11.540;2023-11-25T02:29:29;0.50;;;0.30;;
1785;SDS011;890;48.158;11.540;2023-11-25T02:31:57;0.50;;;0.40;;
1785;SDS011;890;48.158;11.540;2023-11-25T02:34:32;0.50;;;0.40;;
1785;SDS011;890;48.158;11.540;2023-11-25T02:36:57;2.60;;;0.97;;
1785;SDS011;890;48.158;11.540;2023-11-25T02:39:24;1.17;;;0.73;;
1785;SDS011;890;48.158;11.540;2023-11-25T02:41:50;0.83;;;0.83;;
1785;SDS011;890;48.158;11.540;2023-11-25T02:44:17;0.60;;;0.40;;
1785;SDS011;890;48.158;11.540;2023-11-25T02:46:45;0.60;;;0.40;;
1785;SDS011;890;48.158;11.540;2023-11-25T02:49:14;3.93;;;0.80;;
1785;SDS011;890;48.158;11.540;2023-11-25T02:51:50;0.60;;;0.40;;
1785;SDS011;890;48.158;11.540;2023-11-25T02:54:21;0.60;;;0.43;;
1785;SDS011;890;48.158;11.540;2023-11-25T02:56:47;0.80;;;0.57;;
1785;SDS011;890;48.158;11.540;2023-11-25T02:59:13;0.60;;;0.43;;
1785;SDS011;890;48.158;11.540;2023-11-25T03:01:39;0.50;;;0.40;;
1785;SDS011;890;48.158;11.540;2023-11-25T03:04:14;0.57;;;0.43;;
1785;SDS011;890;48.158;11.540;2023-11-25T03:06:41;0.70;;;0.70;;
1785;SDS011;890;48.158;11.540;2023-11-25T03:09:07;0.50;;;0.33;;
1785;SDS011;890;48.158;11.540;2023-11-25T03:11:34;0.70;;;0.40;;
1785;SDS011;890;48.158;11.540;2023-11-25T03:14:00;0.50;;;0.40;;
1785;SDS011;890;48.158;11.540;2023-11-25T03:16:26;0.50;;;0.40;;
1785;SDS011;890;48.158;11.540;2023-11-25T03:18:51;0.50;;;0.40;;
1785;SDS011;890;48.158;11.540;2023-11-25T03:21:18;0.57;;;0.40;;
1785;SDS011;890;48.158;11.540;2023-11-25T03:23:45;0.60;;;0.40;;
1785;SDS011;890;48.158;11.540;2023-11-25T03:26:12;0.50;;;0.40;;
1785;SDS011;890;48.158;11.540;2023-11-25T03:28:38;0.60;;;0.40;;
1785;SDS011;890;48.158;11.540;2023-11-25T03:31:04;1.17;;;0.93;;
1785;SDS011;890;48.158;11.540;2023-11-25T03:33:30;0.60;;;0.40;;
1785;SDS011;890;48.158;11.540;2023-11-25T03:35:56;0.70;;;0.40;;
1785;SDS011;890;48.158;11.540;2023-11-25T03:38:22;0.50;;;0.30;;
1785;SDS011;890;48.158;11.540;2023-11-25T03:40:48;1.20;;;0.40;;
1785;SDS011;890;48.158;11.540;2023-11-25T03:43:13;0.87;;;0.40;;
1785;SDS011;890;48.158;11.540;2023-11-25T03:45:39;0.50;;;0.40;;
1785;SDS011;890;48.158;11.540;2023-11-25T03:48:05;0.60;;;0.50;;
1785;SDS011;890;48.158;11.540;2023-11-25T03:50:31;0.90;;;0.40;;
1785;SDS011;890;48.158;11.540;2023-11-25T03:52:57;0.50;;;0.30;;
1785;SDS011;890;48.158;11.540;2023-11-25T03:55:22;0.80;;;0.60;;
1785;SDS011;890;48.158;11.540;2023-11-25T03:57:48;0.50;;;0.40;;
1785;SDS011;890;48.158;11.540;2023-11-25T04:00:14;0.60;;;0.40;;
1785;SDS011;890;48.158;11.540;2023-11-25T04:02:46;0.73;;;0.73;;
1785;SDS011;890;48.158;11.540;2023-11-25T04:05:13;0.50;;;0.40;;
1785;SDS011;890;48.158;11.540;2023-11-25T04:07:39;0.50;;;0.30;;
1785;SDS011;890;48.158;11.540;2023-11-25T04:10:05;0.60;;;0.50;;
1785;SDS011;890;48.158;11.540;2023-11-25T04:12:48;0.50;;;0.40;;
1785;SDS011;890;48.158;11.540;2023-11-25T04:15:16;0.50;;;0.40;;
1785;SDS011;890;48.158;11.540;2023-11-25T04:17:44;0.50;;;0.40;;
1785;SDS011;890;48.158;11.540;2023-11-25T04:20:11;0.50;;;0.40;;
1785;SDS011;890;48.158;11.540;2023-11-25T04:22:43;0.60;;;0.40;;
1785;SDS011;890;48.158;11.540;2023-11-25T04:25:10;0.50;;;0.40;;
1785;SDS011;890;48.158;11.540;2023-11-25T04:27:39;0.73;;;0.50;;
1785;SDS011;890;48.158;11.540;2023-11-25T04:30:14;0.60;;;0.40;;
1785;SDS011;890;48.158;11.540;2023-11-25T04:32:41;0.50;;;0.40;;
1785;SDS011;890;48.158;11.540;2023-11-25T04:35:08;0.77;;;0.50;;
1785;SDS011;890;48.158;11.540;2023-11-25T04:37:34;0.50;;;0.30;;
1785;SDS011;890;48.158;11.540;2023-11-25T04:40:02;0.50;;;0.40;;
1785;SDS011;890;48.158;11.540;2023-11-25T04:42:32;0.50;;;0.40;;
1785;SDS011;890;48.158;11.540;2023-11-25T04:44:59;2.27;;;0.57;;
1785;SDS011;890;48.158;11.540;2023-11-25T04:47:24;0.50;;;0.40;;
1785;SDS011;890;48.158;11.540;2023-11-25T04:49:51;0.80;;;0.50;;
1785;SDS011;890;48.158;11.540;2023-11-25T04:52:17;0.50;;;0.40;;
1785;SDS011;890;48.158;11.540;2023-11-25T04:54:43;0.50;;;0.40;;
1785;SDS011;890;48.158;11.540;2023-11-25T04:57:09;0.50;;;0.40;;
1785;SDS011;890;48.158;11.540;2023-11-25T04:59:34;0.50;;;0.40;;
1785;SDS011;890;48.158;11.540;2023-11-25T05:02:00;0.50;;;0.40;;
1785;SDS011;890;48.158;11.540;2023-11-25T05:04:27;0.50;;;0.30;;
1785;SDS011;890;48.158;11.540;2023-11-25T05:06:52;0.93;;;0.83;;
1785;SDS011;890;48.158;11.540;2023-11-25T05:09:18;0.50;;;0.30;;
1785;SDS011;890;48.158;11.540;2023-11-25T05:11:44;0.50;;;0.40;;
1785;SDS011;890;48.158;11.540;2023-11-25T05:14:10;1.57;;;0.80;;
1785;SDS011;890;48.158;11.540;2023-11-25T05:16:36;0.50;;;0.30;;
1785;SDS011;890;48.158;11.540;2023-11-25T05:19:02;0.60;;;0.40;;
1785;SDS011;890;48.158;11.540;2023-11-25T05:21:28;0.60;;;0.50;;
1785;SDS011;890;48.158;11.540;2023-11-25T05:23:54;5.60;;;1.37;;
1785;SDS011;890;48.158;11.540;2023-11-25T05:26:20;0.60;;;0.40;;
1785;SDS011;890;48.158;11.540;2023-11-25T05:28:46;0.50;;;0.40;;
1785;SDS011;890;48.158;11.540;2023-11-25T05:31:12;0.50;;;0.40;;
1785;SDS011;890;48.158;11.540;2023-11-25T05:33:37;0.60;;;0.47;;
1785;SDS011;890;48.158;11.540;2023-11-25T05:36:03;0.50;;;0.40;;
1785;SDS011;890;48.158;11.540;2023-11-25T05:38:29;0.50;;;0.30;;
1785;SDS011;890;48.158;11.540;2023-11-25T05:40:54;0.60;;;0.57;;
1785;SDS011;890;48.158;11.540;2023-11-25T05:43:23;0.50;;;0.40;;
1785;SDS011;890;48.158;11.540;2023-11-25T05:45:50;0.60;;;0.40;;
1785;SDS011;890;48.158;11.540;2023-11-25T05:48:16;2.17;;;1.80;;
1785;SDS011;890;48.158;11.540;2023-11-25T05:50:43;0.80;;;0.50;;
1785;SDS011;890;48.158;11.540;2023-11-25T05:53:09;0.60;;;0.60;;
1785;SDS011;890;48.158;11.540;2023-11-25T05:55:35;0.60;;;0.40;;
1785;SDS011;890;48.158;11.540;2023-11-25T05:58:01;0.60;;;0.40;;
1785;SDS011;890;48.158;11.540;2023-11-25T06:00:27;0.50;;;0.30;;
1785;SDS011;890;48.158;11.540;2023-11-25T06:02:54;0.50;;;0.30;;
1785;SDS011;890;48.158;11.540;2023-11-25T06:05:20;1.13;;;0.43;;
1785;SDS011;890;48.158;11.540;2023-11-25T06:07:46;0.50;;;0.40;;
1785;SDS011;890;48.158;11.540;2023-11-25T06:10:11;0.50;;;0.40;;
1785;SDS011;890;48.158;11.540;2023-11-25T06:12:37;0.70;;;0.50;;
1785;SDS011;890;48.158;11.540;2023-11-25T06:15:04;2.30;;;1.23;;
1785;SDS011;890;48.158;11.540;2023-11-25T06:17:30;2.10;;;0.90;;
1785;SDS011;890;48.158;11.540;2023-11-25T06:19:57;4.60;;;1.50;;
1785;SDS011;890;48.158;11.540;2023-11-25T06:22:24;2.47;;;1.63;;
1785;SDS011;890;48.158;11.540;2023-11-25T06:24:49;1.80;;;0.97;;
1785;SDS011;890;48.158;11.540;2023-11-25T06:27:15;246.57;;;128.90;;
1785;SDS011;890;48.158;11.540;2023-11-25T06:29:44;126.63;;;93.93;;
1785;SDS011;890;48.158;11.540;2023-11-25T06:32:10;2.63;;;1.50;;
1785;SDS011;890;48.158;11.540;2023-11-25T06:34:36;0.70;;;0.53;;
1785;SDS011;890;48.158;11.540;2023-11-25T06:37:02;0.50;;;0.40;;
1785;SDS011;890;48.158;11.540;2023-11-25T06:39:28;1.27;;;1.17;;
1785;SDS011;890;48.158;11.540;2023-11-25T06:41:57;0.50;;;0.40;;
1785;SDS011;890;48.158;11.540;2023-11-25T06:44:24;0.70;;;0.40;;
1785;SDS011;890;48.158;11.540;2023-11-25T06:46:49;1.67;;;1.57;;
1785;SDS011;890;48.158;11.540;2023-11-25T06:49:15;0.60;;;0.40;;
1785;SDS011;890;48.158;11.540;2023-11-25T06:51:41;0.50;;;0.40;;
1785;SDS011;890;48.158;11.540;2023-11-25T06:54:08;1.63;;;0.50;;
1785;SDS011;890;48.158;11.540;2023-11-25T06:56:37;0.50;;;0.40;;
1785;SDS011;890;48.158;11.540;2023-11-25T06:59:05;0.50;;;0.30;;
1785;SDS011;890;48.158;11.540;2023-11-25T07:01:34;0.50;;;0.40;;
1785;SDS011;890;48.158;11.540;2023-11-25T07:04:03;0.50;;;0.43;;
1785;SDS011;890;48.158;11.540;2023-11-25T07:06:29;0.50;;;0.40;;
1785;SDS011;890;48.158;11.540;2023-11-25T07:08:55;0.50;;;0.40;;
1785;SDS011;890;48.158;11.540;2023-11-25T07:11:25;0.50;;;0.40;;
1785;SDS011;890;48.158;11.540;2023-11-25T07:13:51;0.50;;;0.43;;
1785;SDS011;890;48.158;11.540;2023-11-25T07:16:19;0.60;;;0.40;;
1785;SDS011;890;48.158;11.540;2023-11-25T07:18:47;0.50;;;0.40;;
1785;SDS011;890;48.158;11.540;2023-11-25T07:21:14;1.23;;;0.40;;
1785;SDS011;890;48.158;11.540;2023-11-25T07:23:39;0.80;;;0.60;;
1785;SDS011;890;48.158;11.540;2023-11-25T07:26:06;0.60;;;0.40;;
1785;SDS011;890;48.158;11.540;2023-11-25T07:28:32;0.50;;;0.30;;
1785;SDS011;890;48.158;11.540;2023-11-25T07:31:01;0.50;;;0.33;;
1785;SDS011;890;48.158;11.540;2023-11-25T07:33:27;1.10;;;0.53;;
1785;SDS011;890;48.158;11.540;2023-11-25T07:35:53;2.67;;;2.47;;
1785;SDS011;890;48.158;11.540;2023-11-25T07:38:19;0.60;;;0.40;;
1785;SDS011;890;48.158;11.540;2023-11-25T07:40:44;0.87;;;0.40;;
1785;SDS011;890;48.158;11.540;2023-11-25T07:43:10;0.50;;;0.40;;
1785;SDS011;890;48.158;11.540;2023-11-25T07:45:35;0.60;;;0.50;;
1785;SDS011;890;48.158;11.540;2023-11-25T07:48:01;0.50;;;0.40;;
1785;SDS011;890;48.158;11.540;2023-11-25T07:50:28;0.50;;;0.40;;
1785;SDS011;890;48.158;11.540;2023-11-25T07:52:53;0.80;;;0.80;;
1785;SDS011;890;48.158;11.540;2023-11-25T07:55:19;1.00;;;0.50;;
1785;SDS011;890;48.158;11.540;2023-11-25T07:57:45;2.20;;;1.23;;
1785;SDS011;890;48.158;11.540;2023-11-25T08:00:14;0.60;;;0.50;;
1785;SDS011;890;48.158;11.540;2023-11-25T08:02:44;0.90;;;0.50;;
1785;SDS011;890;48.158;11.540;2023-11-25T08:05:10;0.50;;;0.40;;
1785;SDS011;890;48.158;11.540;2023-11-25T08:07:36;0.50;;;0.40;;
1785;SDS011;890;48.158;11.540;2023-11-25T08:10:02;0.70;;;0.50;;
1785;SDS011;890;48.158;11.540;2023-11-25T08:12:30;4.05;;;1.38;;
1785;SDS011;890;48.158;11.540;2023-11-25T08:14:56;881.70;;;811.33;;
1785;SDS011;890;48.158;11.540;2023-11-25T08:17:22;464.25;;;412.10;;
1785;SDS011;890;48.158;11.540;2023-11-25T08:19:47;1000.43;;;923.43;;
1785;SDS011;890;48.158;11.540;2023-11-25T08:22:13;1500.63;;;999.90;;
1785;SDS011;890;48.158;11.540;2023-11-25T08:24:38;1551.00;;;999.90;;
1785;SDS011;890;48.158;11.540;2023-11-25T08:27:04;1.17;;;0.50;;
1785;SDS011;890;48.158;11.540;2023-11-25T08:29:30;753.90;;;690.23;;
1785;SDS011;890;48.158;11.540;2023-11-25T08:31:55;363.07;;;162.63;;
1785;SDS011;890;48.158;11.540;2023-11-25T08:34:21;753.63;;;689.10;;
1785;SDS011;890;48.158;11.540;2023-11-25T08:36:47;658.57;;;599.23;;
1785;SDS011;890;48.158;11.540;2023-11-25T08:39:22;369.15;;;203.55;;
1785;SDS011;890;48.158;11.540;2023-11-25T08:41:51;401.67;;;298.80;;
1785;SDS011;890;48.158;11.540;2023-11-25T08:44:18;626.70;;;568.97;;
1785;SDS011;890;48.158;11.540;2023-11-25T08:46:47;469.98;;;369.92;;
1785;SDS011;890;48.158;11.540;2023-11-25T08:49:14;1253.25;;;999.90;;
1785;SDS011;890;48.158;11.540;2023-11-25T08:51:41;754.15;;;690.08;;
1785;SDS011;890;48.158;11.540;2023-11-25T08:54:12;1071.55;;;975.17;;
1785;SDS011;890;48.158;11.540;2023-11-25T08:56:43;1031.80;;;949.65;;
1785;SDS011;890;48.158;11.540;2023-11-25T08:59:10;1392.45;;;999.90;;
1785;SDS011;890;48.158;11.540;2023-11-25T09:01:37;1038.70;;;955.75;;
1785;SDS011;890;48.158;11.540;2023-11-25T09:04:04;1309.35;;;999.90;;
1785;SDS011;890;48.158;11.540;2023-11-25T09:06:34;1451.20;;;999.90;;
1785;SDS011;890;48.158;11.540;2023-11-25T09:09:04;1503.25;;;999.90;;
1785;SDS011;890;48.158;11.540;2023-11-25T09:11:34;1278.57;;;999.90;;
1785;SDS011;890;48.158;11.540;2023-11-25T09:14:00;1452.68;;;999.90;;
1785;SDS011;890;48.158;11.540;2023-11-25T09:16:29;1306.88;;;999.90;;
1785;SDS011;890;48.158;11.540;2023-11-25T09:18:54;1510.33;;;999.90;;
1785;SDS011;890;48.158;11.540;2023-11-25T09:21:20;1391.47;;;999.90;;
1785;SDS011;890;48.158;11.540;2023-11-25T09:23:46;563.93;;;512.30;;
1785;SDS011;890;48.158;11.540;2023-11-25T09:26:11;585.77;;;536.50;;
1785;SDS011;890;48.158;11.540;2023-11-25T09:28:37;1406.27;;;999.90;;
1785;SDS011;890;48.158;11.540;2023-11-25T09:31:03;1479.33;;;999.90;;
1785;SDS011;890;48.158;11.540;2023-11-25T09:33:29;1023.63;;;924.53;;
1785;SDS011;890;48.158;11.540;2023-11-25T09:35:55;1396.68;;;999.90;;
1785;SDS011;890;48.158;11.540;2023-11-25T09:38:21;1438.72;;;999.90;;
1785;SDS011;890;48.158;11.540;2023-11-25T09:40:48;1442.93;;;999.90;;
1785;SDS011;890;48.158;11.540;2023-11-25T09:43:14;552.73;;;512.60;;
1785;SDS011;890;48.158;11.540;2023-11-25T09:45:42;740.50;;;680.80;;
1785;SDS011;890;48.158;11.540;2023-11-25T09:48:09;1405.10;;;999.90;;
1785;SDS011;890;48.158;11.540;2023-11-25T09:50:36;1447.70;;;999.90;;
1785;SDS011;890;48.158;11.540;2023-11-25T09:53:06;1280.93;;;999.90;;
1785;SDS011;890;48.158;11.540;2023-11-25T09:55:38;1050.90;;;965.13;;
1785;SDS011;890;48.158;11.540;2023-11-25T09:58:06;940.63;;;867.20;;
1785;SDS011;890;48.158;11.540;2023-11-25T10:00:33;483.45;;;434.40;;
1785;SDS011;890;48.158;11.540;2023-11-25T10:03:02;403.40;;;290.33;;
1785;SDS011;890;48.158;11.540;2023-11-25T10:05:31;389.88;;;297.05;;
1785;SDS011;890;48.158;11.540;2023-11-25T10:07:57;213.00;;;171.27;;
1785;SDS011;890;48.158;11.540;2023-11-25T10:10:24;217.30;;;195.33;;
1785;SDS011;890;48.158;11.540;2023-11-25T10:12:51;205.97;;;186.10;;
1785;SDS011;890;48.158;11.540;2023-11-25T10:15:17;65.67;;;61.53;;
1785;SDS011;890;48.158;11.540;2023-11-25T10:17:43;6.97;;;2.60;;
1785;SDS011;890;48.158;11.540;2023-11-25T10:20:12;4.03;;;1.87;;
1785;SDS011;890;48.158;11.540;2023-11-25T10:25:13;2.90;;;1.60;;
1785;SDS011;890;48.158;11.540;2023-11-25T10:27:41;17.07;;;15.67;;
1785;SDS011;890;48.158;11.540;2023-11-25T10:30:07;66.60;;;56.93;;
1785;SDS011;890;48.158;11.540;2023-11-25T10:32:37;4.07;;;3.77;;
1785;SDS011;890;48.158;11.540;2023-11-25T10:35:04;2.53;;;1.10;;
1785;SDS011;890;48.158;11.540;2023-11-25T10:37:33;5.50;;;0.83;;
1785;SDS011;890;48.158;11.540;2023-11-25T10:39:59;1.60;;;1.07;;
1785;SDS011;890;48.158;11.540;2023-11-25T10:42:25;0.93;;;0.70;;
1785;SDS011;890;48.158;11.540;2023-11-25T10:44:52;2.13;;;1.17;;
1785;SDS011;890;48.158;11.540;2023-11-25T10:47:28;4.40;;;2.10;;
1785;SDS011;890;48.158;11.540;2023-11-25T10:49:58;3.43;;;1.13;;
1785;SDS011;890;48.158;11.540;2023-11-25T10:52:31;2.80;;;1.20;;
1785;SDS011;890;48.158;11.540;2023-11-25T10:54:58;4.57;;;2.63;;
1785;SDS011;890;48.158;11.540;2023-11-25T10:57:24;26.87;;;18.97;;
1785;SDS011;890;48.158;11.540;2023-11-25T10:59:57;47.53;;;36.97;;
1785;SDS011;890;48.158;11.540;2023-11-25T11:04:58;2.30;;;1.43;;
1785;SDS011;890;48.158;11.540;2023-11-25T11:07:27;2.57;;;0.97;;
1785;SDS011;890;48.158;11.540;2023-11-25T11:09:56;7.13;;;5.53;;
1785;SDS011;890;48.158;11.540;2023-11-25T11:12:34;58.00;;;49.70;;
1785;SDS011;890;48.158;11.540;2023-11-25T11:15:04;56.43;;;53.13;;
1785;SDS011;890;48.158;11.540;2023-11-25T11:17:48;1.10;;;0.60;;
1785;SDS011;890;48.158;11.540;2023-11-25T11:20:41;1.90;;;0.90;;
1785;SDS011;890;48.158;11.540;2023-11-25T11:23:12;40.67;;;36.43;;
1785;SDS011;890;48.158;11.540;2023-11-25T11:28:40;13.37;;;12.20;;
1785;SDS011;890;48.158;11.540;2023-11-25T11:34:16;3.33;;;1.63;;
1785;SDS011;890;48.158;11.540;2023-11-25T11:36:42;10.60;;;9.53;;
1785;SDS011;890;48.158;11.540;2023-11-25T11:39:08;101.50;;;83.67;;
1785;SDS011;890;48.158;11.540;2023-11-25T11:41:43;124.77;;;101.30;;
1785;SDS011;890;48.158;11.540;2023-11-25T11:44:09;101.27;;;73.67;;
1785;SDS011;890;48.158;11.540;2023-11-25T11:46:38;107.13;;;96.30;;
1785;SDS011;890;48.158;11.540;2023-11-25T11:49:15;83.77;;;65.43;;
1785;SDS011;890;48.158;11.540;2023-11-25T11:52:01;179.10;;;161.00;;
1785;SDS011;890;48.158;11.540;2023-11-25T11:54:27;180.87;;;160.53;;
1785;SDS011;890;48.158;11.540;2023-11-25T11:57:00;245.80;;;183.70;;
1785;SDS011;890;48.158;11.540;2023-11-25T12:02:33;157.90;;;94.20;;
1785;SDS011;890;48.158;11.540;2023-11-25T12:05:02;322.13;;;207.07;;
1785;SDS011;890;48.158;11.540;2023-11-25T12:07:29;27.20;;;25.37;;
1785;SDS011;890;48.158;11.540;2023-11-25T12:09:55;8.80;;;4.67;;
1785;SDS011;890;48.158;11.540;2023-11-25T12:12:22;13.30;;;3.83;;
1785;SDS011;890;48.158;11.540;2023-11-25T12:14:49;2.70;;;1.73;;
1785;SDS011;890;48.158;11.540;2023-11-25T12:17:15;1.07;;;0.63;;
1785;SDS011;890;48.158;11.540;2023-11-25T12:19:41;1.57;;;0.60;;
1785;SDS011;890;48.158;11.540;2023-11-25T12:22:10;1.37;;;0.97;;
1785;SDS011;890;48.158;11.540;2023-11-25T12:24:40;1.23;;;1.13;;
1785;SDS011;890;48.158;11.540;2023-11-25T12:27:12;1.73;;;0.70;;
1785;SDS011;890;48.158;11.540;2023-11-25T12:29:39;1.27;;;1.10;;
1785;SDS011;890;48.158;11.540;2023-11-25T12:32:05;1.00;;;0.77;;
1785;SDS011;890;48.158;11.540;2023-11-25T12:34:30;0.90;;;0.70;;
1785;SDS011;890;48.158;11.540;2023-11-25T12:36:57;1.20;;;0.80;;
1785;SDS011;890;48.158;11.540;2023-11-25T12:39:23;1.47;;;1.13;;
1785;SDS011;890;48.158;11.540;2023-11-25T12:41:49;3.90;;;1.43;;
1785;SDS011;890;48.158;11.540;2023-11-25T12:44:15;2.57;;;1.07;;
1785;SDS011;890;48.158;11.540;2023-11-25T12:46:42;1.67;;;1.00;;
1785;SDS011;890;48.158;11.540;2023-11-25T12:49:29;1.30;;;1.03;;
1785;SDS011;890;48.158;11.540;2023-11-25T12:51:55;1.27;;;1.17;;
1785;SDS011;890;48.158;11.540;2023-11-25T12:54:21;1.10;;;0.63;;
1785;SDS011;890;48.158;11.540;2023-11-25T12:56:47;1.63;;;1.07;;
1785;SDS011;890;48.158;11.540;2023-11-25T12:59:22;1.47;;;0.80;;
1785;SDS011;890;48.158;11.540;2023-11-25T13:01:54;1.03;;;0.70;;
1785;SDS011;890;48.158;11.540;2023-11-25T13:04:33;1.73;;;1.43;;
1785;SDS011;890;48.158;11.540;2023-11-25T13:07:11;2.50;;;1.50;;
1785;SDS011;890;48.158;11.540;2023-11-25T13:09:59;1.30;;;0.70;;
1785;SDS011;890;48.158;11.540;2023-11-25T13:12:29;2.93;;;1.33;;
1785;SDS011;890;48.158;11.540;2023-11-25T13:14:55;0.87;;;0.77;;
1785;SDS011;890;48.158;11.540;2023-11-25T13:17:22;0.87;;;0.50;;
1785;SDS011;890;48.158;11.540;2023-11-25T13:19:48;0.97;;;0.83;;
1785;SDS011;890;48.158;11.540;2023-11-25T13:22:15;1.83;;;1.17;;
1785;SDS011;890;48.158;11.540;2023-11-25T13:24:43;2.53;;;1.10;;
1785;SDS011;890;48.158;11.540;2023-11-25T13:27:10;2.33;;;1.17;;
1785;SDS011;890;48.158;11.540;2023-11-25T13:29:35;0.90;;;0.50;;
1785;SDS011;890;48.158;11.540;2023-11-25T13:32:01;0.80;;;0.60;;
1785;SDS011;890;48.158;11.540;2023-11-25T13:34:27;0.83;;;0.70;;
1785;SDS011;890;48.158;11.540;2023-11-25T13:36:52;0.60;;;0.40;;
1785;SDS011;890;48.158;11.540;2023-11-25T13:39:18;0.80;;;0.50;;
1785;SDS011;890;48.158;11.540;2023-11-25T13:41:48;0.63;;;0.50;;
1785;SDS011;890;48.158;11.540;2023-11-25T13:44:14;0.60;;;0.57;;
1785;SDS011;890;48.158;11.540;2023-11-25T13:46:39;0.93;;;0.83;;
1785;SDS011;890;48.158;11.540;2023-11-25T13:49:05;1.00;;;0.60;;
1785;SDS011;890;48.158;11.540;2023-11-25T13:51:31;0.97;;;0.87;;
1785;SDS011;890;48.158;11.540;2023-11-25T13:53:57;0.80;;;0.60;;
1785;SDS011;890;48.158;11.540;2023-11-25T13:56:23;1.23;;;0.77;;
1785;SDS011;890;48.158;11.540;2023-11-25T13:58:49;4.17;;;2.53;;
1785;SDS011;890;48.158;11.540;2023-11-25T14:01:16;0.60;;;0.50;;
1785;SDS011;890;48.158;11.540;2023-11-25T14:03:42;4.27;;;2.07;;
1785;SDS011;890;48.158;11.540;2023-11-25T14:06:07;1.50;;;1.23;;
1785;SDS011;890;48.158;11.540;2023-11-25T14:08:33;0.77;;;0.53;;
1785;SDS011;890;48.158;11.540;2023-11-25T14:10:59;0.90;;;0.63;;
1785;SDS011;890;48.158;11.540;2023-11-25T14:13:25;2.87;;;1.23;;
1785;SDS011;890;48.158;11.540;2023-11-25T14:15:52;0.50;;;0.40;;
1785;SDS011;890;48.158;11.540;2023-11-25T14:18:18;0.80;;;0.80;;
1785;SDS011;890;48.158;11.540;2023-11-25T14:20:44;1.47;;;0.93;;
1785;SDS011;890;48.158;11.540;2023-11-25T14:23:09;1.40;;;0.97;;
1785;SDS011;890;48.158;11.540;2023-11-25T14:25:35;7.00;;;1.20;;
1785;SDS011;890;48.158;11.540;2023-11-25T14:28:01;3.70;;;1.90;;
1785;SDS011;890;48.158;11.540;2023-11-25T14:30:27;1.20;;;1.00;;
1785;SDS011;890;48.158;11.540;2023-11-25T14:32:55;1.43;;;1.33;;
1785;SDS011;890;48.158;11.540;2023-11-25T14:35:21;1.13;;;0.90;;
1785;SDS011;890;48.158;11.540;2023-11-25T14:37:47;2.70;;;1.10;;
1785;SDS011;890;48.158;11.540;2023-11-25T14:40:13;1.03;;;0.97;;
1785;SDS011;890;48.158;11.540;2023-11-25T14:42:39;1.97;;;1.03;;
1785;SDS011;890;48.158;11.540;2023-11-25T14:45:06;2.20;;;1.67;;
1785;SDS011;890;48.158;11.540;2023-11-25T14:47:35;1.30;;;1.13;;
1785;SDS011;890;48.158;11.540;2023-11-25T14:50:01;2.60;;;1.20;;
1785;SDS011;890;48.158;11.540;2023-11-25T14:52:28;2.70;;;1.13;;
1785;SDS011;890;48.158;11.540;2023-11-25T14:54:54;1.90;;;1.10;;
1785;SDS011;890;48.158;11.540;2023-11-25T14:57:19;6.00;;;1.87;;
1785;SDS011;890;48.158;11.540;2023-11-25T14:59:46;0.80;;;0.60;;
1785;SDS011;890;48.158;11.540;2023-11-25T15:02:11;2.30;;;0.90;;
1785;SDS011;890;48.158;11.540;2023-11-25T15:04:37;1.97;;;1.00;;
1785;SDS011;890;48.158;11.540;2023-11-25T15:07:06;1.40;;;0.87;;
1785;SDS011;890;48.158;11.540;2023-11-25T15:09:32;1.10;;;0.80;;
1785;SDS011;890;48.158;11.540;2023-11-25T15:11:58;1.00;;;0.83;;
1785;SDS011;890;48.158;11.540;2023-11-25T15:14:24;1.60;;;1.13;;
1785;SDS011;890;48.158;11.540;2023-11-25T15:16:51;1.40;;;1.07;;
1785;SDS011;890;48.158;11.540;2023-11-25T15:19:18;2.00;;;0.93;;